»·PEaware :: AAL225 KLAS-KBUR

AAL225 :: KLAS-KBUR

FLIGHT INFORMATION

Flight Status: Arrived
Operator:
American Airlines
More flights by this operator :: More flights under this callsign
Pilot: Michael R. (16974)
Aircraft: BOEING 737-800
(B738)
More flights by this aircraft type
Origin: KLAS McCarran Intl
United States
Destination: KBUR Bob Hope-Burbank
United States
More flights between these airports :: More routes between these airports
Route: BOACH8 WHIGG KREME JANNY3
File this flight plan on PilotEdge
Remarks:
Altitude:
(Current/Filed)
22,000ft
Speed:
(Current/Filed)
415kts
Departed: 16-Apr-18 08:36 PM
Arrived: 16-Apr-18 09:32 PM
Distance/Time
Traveled:
193nm/0:56
Distance/Time
To Go:
Arrived

Flight Plot

Page will automatically refresh every two minutes.

Flight plan parsing failed; only flown route is shown


Map Options




Map Legend


Flown Route
Filed Route
Departure Airport
Arrival Airport
Navaid (VOR, NDB)
Fix

Horizontal Profiles

Position Reports

Time Latitude Longitude Heading Altitude Ground
Speed
16-Apr-18 20:18 36.080865 -115.136778 33 2149ft 0kts
16-Apr-18 20:19 36.080865 -115.136778 33 2149ft 0kts
16-Apr-18 20:20 36.080865 -115.136778 33 2149ft 0kts
16-Apr-18 20:21 36.080865 -115.136778 33 2149ft 0kts
16-Apr-18 20:22 36.080850 -115.136791 33 2149ft 1kts
16-Apr-18 20:23 36.080324 -115.137104 26 2149ft 2kts
16-Apr-18 20:24 36.080071 -115.137404 136 2149ft 0kts
16-Apr-18 20:25 36.080107 -115.137450 125 2149ft 0kts
16-Apr-18 20:26 36.080107 -115.137450 125 2149ft 0kts
16-Apr-18 20:27 36.080107 -115.137450 125 2149ft 0kts
16-Apr-18 20:28 36.079274 -115.136330 133 2149ft 0kts
16-Apr-18 20:29 36.079058 -115.136043 136 2149ft 10kts
16-Apr-18 20:30 36.078270 -115.130074 90 2149ft 23kts
16-Apr-18 20:31 36.078274 -115.123834 90 2149ft 17kts
16-Apr-18 20:32 36.077461 -115.121486 140 2149ft 0kts
16-Apr-18 20:33 36.077452 -115.121478 142 2149ft 0kts
16-Apr-18 20:34 36.076429 -115.122283 267 2149ft 0kts
16-Apr-18 20:35 36.076709 -115.145061 269 2218ft 151kts
16-Apr-18 20:36 36.077953 -115.205955 260 4689ft 223kts
16-Apr-18 20:37 36.045336 -115.268869 203 6994ft 241kts
16-Apr-18 20:38 35.983190 -115.297760 204 10078ft 243kts
16-Apr-18 20:39 35.911489 -115.311856 190 13422ft 273kts
16-Apr-18 20:40 35.837867 -115.316494 185 16958ft 287kts
16-Apr-18 20:41 35.757665 -115.305982 187 19990ft 299kts
16-Apr-18 20:42 35.675650 -115.309748 215 21878ft 291kts
16-Apr-18 20:43 35.614863 -115.383048 228 21868ft 317kts
16-Apr-18 20:44 35.555166 -115.462613 229 21864ft 318kts
16-Apr-18 20:45 35.494857 -115.541762 226 21862ft 318kts
16-Apr-18 20:46 35.431126 -115.617192 226 21860ft 318kts
16-Apr-18 20:47 35.370106 -115.689232 226 21874ft 318kts
16-Apr-18 20:48 35.306632 -115.763968 226 22004ft 317kts
16-Apr-18 20:49 35.243496 -115.838302 226 21997ft 316kts
16-Apr-18 20:50 35.178660 -115.914600 227 21997ft 325kts
16-Apr-18 20:51 35.113755 -115.990856 227 21995ft 325kts
16-Apr-18 20:52 35.048674 -116.067194 227 21992ft 325kts
16-Apr-18 20:53 34.987158 -116.139221 227 21990ft 325kts
16-Apr-18 20:54 34.922215 -116.215626 230 21984ft 323kts
16-Apr-18 20:55 34.885099 -116.303095 243 21999ft 321kts
16-Apr-18 20:56 34.851384 -116.390620 243 21997ft 321kts
16-Apr-18 20:57 34.813379 -116.488888 243 21995ft 321kts
16-Apr-18 20:58 34.781918 -116.590010 258 22006ft 328kts
16-Apr-18 20:59 34.772582 -116.694925 258 22008ft 327kts
16-Apr-18 21:00 34.762344 -116.804157 258 22002ft 318kts
16-Apr-18 21:01 34.752016 -116.910630 257 22005ft 318kts
16-Apr-18 21:02 34.741154 -117.019012 259 22000ft 325kts
16-Apr-18 21:03 34.730189 -117.127886 259 22091ft 325kts
16-Apr-18 21:04 34.719114 -117.236698 259 22089ft 324kts
16-Apr-18 21:05 34.709566 -117.331682 258 21968ft 246kts
16-Apr-18 21:06 34.701259 -117.412698 258 20744ft 243kts
16-Apr-18 21:07 34.692974 -117.493043 258 19515ft 238kts
16-Apr-18 21:08 34.684824 -117.571631 257 18300ft 233kts
16-Apr-18 21:09 34.676643 -117.649898 258 16966ft 234kts
16-Apr-18 21:10 34.668589 -117.725225 258 15895ft 234kts
16-Apr-18 21:11 34.660149 -117.803449 260 14773ft 235kts
16-Apr-18 21:12 34.651618 -117.882450 260 13780ft 238kts
16-Apr-18 21:13 34.642926 -117.962018 261 12817ft 241kts
16-Apr-18 21:14 34.633984 -118.043522 261 11838ft 246kts
16-Apr-18 21:15 34.619719 -118.123079 255 10871ft 250kts
16-Apr-18 21:16 34.601709 -118.202676 255 9893ft 242kts
16-Apr-18 21:17 34.583787 -118.282092 256 8895ft 239kts
16-Apr-18 21:18 34.563444 -118.358899 254 8412ft 235kts
16-Apr-18 21:19 34.543941 -118.436457 255 8000ft 240kts
16-Apr-18 21:20 34.518210 -118.511532 241 7986ft 246kts
16-Apr-18 21:21 34.483455 -118.583500 242 6761ft 249kts
16-Apr-18 21:22 34.449848 -118.655155 242 5144ft 259kts
16-Apr-18 21:23 34.417035 -118.723003 230 5008ft 227kts
16-Apr-18 21:24 34.353012 -118.737213 173 5000ft 240kts
16-Apr-18 21:25 34.328497 -118.674403 92 5019ft 215kts
16-Apr-18 21:26 34.322144 -118.605216 91 5009ft 203kts
16-Apr-18 21:27 34.315529 -118.535795 92 4980ft 193kts
16-Apr-18 21:28 34.309701 -118.466335 93 3484ft 221kts
16-Apr-18 21:29 34.281047 -118.403805 134 2607ft 212kts
16-Apr-18 21:30 34.230836 -118.366394 158 1496ft 205kts
16-Apr-18 21:31 34.195007 -118.355713 166 785ft 2kts
16-Apr-18 21:32 34.196596 -118.355527 356 785ft 2kts
16-Apr-18 21:33 34.197016 -118.350637 145 785ft 8kts
16-Apr-18 21:34 34.196838 -118.350580 172 785ft 0kts
16-Apr-18 21:35 34.196838 -118.350580 172 785ft 0kts

Navigation Log

Ident Type
Flight plan parsing failed, navigation log unavailable